Time;durP1;ratioP1;P1;durP2;ratioP2;P2;SDS_P1;SDS_P2;PMS_P1;PMS_P2;Temp;Humidity;BMP_temperature;BMP_pressure;BME280_temperature;BME280_humidity;BME280_pressure;Samples;Min_cycle;Max_cycle;Signal;HPM_P1;HPM_P2
2022/03/26 00:08:41;;;;;;;;;0.00;0.00;;;;;;;;2;288083112;288083112;-72
2022/03/26 00:16:57;;;;;;;;;0.00;0.00;;;;;;;;2;261075707;261075707;-72
2022/03/26 00:26:24;;;;;;;;;0.00;0.00;;;;;;;;2;288085398;288085398;-71
2022/03/26 00:34:40;;;;;;;;;0.00;0.00;;;;;;;;2;261079471;261079471;-73
2022/03/26 00:47:27;;;;;;;;;0.00;0.00;;;;;;;;2;288089673;288089673;-73
2022/03/26 00:55:42;;;;;;;;;0.00;0.00;;;;;;;;2;261080568;261080568;-74
2022/03/26 01:05:13;;;;;;;;;0.00;0.00;;;;;;;;2;288084389;288084389;-73
2022/03/26 01:13:30;;;;;;;;;0.00;0.00;;;;;;;;2;261077325;261077325;-74
2022/03/26 01:22:57;;;;;;;;;0.00;0.00;;;;;;;;2;288082623;288082623;-74
2022/03/26 01:31:13;;;;;;;;;0.00;0.00;;;;;;;;2;261077739;261077739;-74
2022/03/26 01:40:40;;;;;;;;;0.00;0.00;;;;;;;;2;288085365;288085365;-74
2022/03/26 01:48:56;;;;;;;;;0.00;0.00;;;;;;;;2;261077878;261077878;-74
2022/03/26 01:58:24;;;;;;;;;0.00;0.00;;;;;;;;2;288084568;288084568;-73
2022/03/26 02:06:40;;;;;;;;;0.00;0.00;;;;;;;;2;261074801;261074801;-74
2022/03/26 02:16:08;;;;;;;;;0.00;0.00;;;;;;;;2;288083585;288083585;-74
2022/03/26 02:24:23;;;;;;;;;0.00;0.00;;;;;;;;2;261077416;261077416;-74
2022/03/26 02:33:51;;;;;;;;;0.00;0.00;;;;;;;;2;288082802;288082802;-73
2022/03/26 02:42:06;;;;;;;;;0.00;0.00;;;;;;;;2;261074406;261074406;-74
2022/03/26 02:51:34;;;;;;;;;0.00;0.00;;;;;;;;2;288081912;288081912;-73
2022/03/26 02:59:49;;;;;;;;;0.00;0.00;;;;;;;;2;261076467;261076467;-72
2022/03/26 03:09:17;;;;;;;;;0.00;0.00;;;;;;;;2;288081843;288081843;-72
2022/03/26 03:17:40;;;;;;;;;0.00;0.00;;;;;;;;2;261077899;261077899;-72
2022/03/26 03:27:08;;;;;;;;;0.00;0.00;;;;;;;;2;288083046;288083046;-72
2022/03/26 03:35:23;;;;;;;;;0.00;0.00;;;;;;;;2;261077386;261077386;-72
2022/03/26 03:44:51;;;;;;;;;0.00;0.00;;;;;;;;2;288081779;288081779;-72
2022/03/26 03:53:06;;;;;;;;;0.00;0.00;;;;;;;;2;261078522;261078522;-72
2022/03/26 04:02:34;;;;;;;;;0.00;0.00;;;;;;;;2;288082654;288082654;-72
2022/03/26 04:10:50;;;;;;;;;0.00;0.00;;;;;;;;2;261079537;261079537;-72
2022/03/26 04:20:17;;;;;;;;;0.00;0.00;;;;;;;;2;288084608;288084608;-72
2022/03/26 04:28:33;;;;;;;;;0.00;0.00;;;;;;;;2;261076117;261076117;-72
2022/03/26 04:38:00;;;;;;;;;0.00;0.00;;;;;;;;2;288085539;288085539;-72
2022/03/26 04:46:16;;;;;;;;;0.00;0.00;;;;;;;;2;261073638;261073638;-73
2022/03/26 04:55:43;;;;;;;;;0.00;0.00;;;;;;;;2;288085050;288085050;-73
2022/03/26 05:03:59;;;;;;;;;0.00;0.00;;;;;;;;2;261077006;261077006;-73
2022/03/26 05:13:26;;;;;;;;;0.00;0.00;;;;;;;;2;288083481;288083481;-73
2022/03/26 05:21:42;;;;;;;;;0.00;0.00;;;;;;;;2;261075823;261075823;-73
2022/03/26 05:31:10;;;;;;;;;0.00;0.00;;;;;;;;2;288082588;288082588;-73
2022/03/26 05:39:25;;;;;;;;;0.00;0.00;;;;;;;;2;261076457;261076457;-73
2022/03/26 05:48:53;;;;;;;;;0.00;0.00;;;;;;;;2;288083800;288083800;-73
2022/03/26 05:57:08;;;;;;;;;0.00;0.00;;;;;;;;2;261074744;261074744;-73
2022/03/26 06:06:35;;;;;;;;;0.00;0.00;;;;;;;;2;288084209;288084209;-73
2022/03/26 06:14:51;;;;;;;;;0.00;0.00;;;;;;;;2;261075321;261075321;-73
2022/03/26 06:24:20;;;;;;;;;0.00;0.00;;;;;;;;2;288085811;288085811;-71
2022/03/26 06:32:35;;;;;;;;;0.00;0.00;;;;;;;;2;261076922;261076922;-71
2022/03/26 06:42:04;;;;;;;;;0.00;0.00;;;;;;;;2;288083398;288083398;-72
2022/03/26 06:50:19;;;;;;;;;0.00;0.00;;;;;;;;2;261076774;261076774;-72
2022/03/26 06:59:47;;;;;;;;;0.00;0.00;;;;;;;;2;288081532;288081532;-72
2022/03/26 07:08:03;;;;;;;;;0.00;0.00;;;;;;;;2;261075193;261075193;-72
2022/03/26 07:17:30;;;;;;;;;0.00;0.00;;;;;;;;2;288085139;288085139;-72
2022/03/26 07:25:46;;;;;;;;;0.00;0.00;;;;;;;;2;261073592;261073592;-74
2022/03/26 07:35:13;;;;;;;;;0.00;0.00;;;;;;;;2;288087866;288087866;-73
2022/03/26 07:43:29;;;;;;;;;0.00;0.00;;;;;;;;2;261079181;261079181;-73
2022/03/26 07:52:56;;;;;;;;;0.00;0.00;;;;;;;;2;288081451;288081451;-72
2022/03/26 08:01:12;;;;;;;;;0.00;0.00;;;;;;;;2;261078930;261078930;-73
2022/03/26 08:10:39;;;;;;;;;0.00;0.00;;;;;;;;2;288085547;288085547;-72
2022/03/26 08:18:55;;;;;;;;;0.00;0.00;;;;;;;;2;261076562;261076562;-72
2022/03/26 08:28:22;;;;;;;;;0.00;0.00;;;;;;;;2;288082619;288082619;-72
2022/03/26 08:36:38;;;;;;;;;0.00;0.00;;;;;;;;2;261077571;261077571;-73
2022/03/26 08:46:05;;;;;;;;;0.00;0.00;;;;;;;;2;288082808;288082808;-74
2022/03/26 08:54:21;;;;;;;;;0.00;0.00;;;;;;;;2;261081248;261081248;-73
2022/03/26 09:03:50;;;;;;;;;0.00;0.00;;;;;;;;2;288086477;288086477;-74
2022/03/26 09:12:06;;;;;;;;;0.00;0.00;;;;;;;;2;261079512;261079512;-73
2022/03/26 09:21:33;;;;;;;;;0.00;0.00;;;;;;;;2;288087296;288087296;-72
2022/03/26 09:29:49;;;;;;;;;0.00;0.00;;;;;;;;2;261079295;261079295;-72
2022/03/26 09:39:16;;;;;;;;;0.00;0.00;;;;;;;;2;288084781;288084781;-72
2022/03/26 09:47:32;;;;;;;;;0.00;0.00;;;;;;;;2;261078973;261078973;-72
2022/03/26 09:57:00;;;;;;;;;0.00;0.00;;;;;;;;2;288082282;288082282;-72
2022/03/26 10:05:19;;;;;;;;;0.00;0.00;;;;;;;;2;261077084;261077084;-73
2022/03/26 10:14:52;;;;;;;;;0.00;0.00;;;;;;;;2;288084200;288084200;-72
2022/03/26 10:23:08;;;;;;;;;0.00;0.00;;;;;;;;2;261077373;261077373;-72
2022/03/26 10:32:39;;;;;;;;;0.00;0.00;;;;;;;;2;288083562;288083562;-72
2022/03/26 10:40:58;;;;;;;;;0.00;0.00;;;;;;;;2;261077714;261077714;-72
2022/03/26 10:50:27;;;;;;;;;0.00;0.00;;;;;;;;2;288084649;288084649;-73
2022/03/26 10:58:43;;;;;;;;;0.00;0.00;;;;;;;;2;261075483;261075483;-72
2022/03/26 11:08:11;;;;;;;;;0.00;0.00;;;;;;;;2;288081825;288081825;-73
2022/03/26 11:16:39;;;;;;;;;0.00;0.00;;;;;;;;2;261075235;261075235;-73
2022/03/26 11:26:22;;;;;;;;;0.00;0.00;;;;;;;;2;288083640;288083640;-75
2022/03/26 11:34:37;;;;;;;;;0.00;0.00;;;;;;;;2;261078464;261078464;-75
2022/03/26 11:44:07;;;;;;;;;0.00;0.00;;;;;;;;2;288085066;288085066;-75
2022/03/26 11:52:26;;;;;;;;;0.00;0.00;;;;;;;;2;261078903;261078903;-76
2022/03/26 12:01:54;;;;;;;;;0.00;0.00;;;;;;;;2;288085853;288085853;-75
2022/03/26 12:10:10;;;;;;;;;0.00;0.00;;;;;;;;2;261077961;261077961;-79
2022/03/26 12:19:38;;;;;;;;;0.00;0.00;;;;;;;;2;288085357;288085357;-78
2022/03/26 12:27:53;;;;;;;;;0.00;0.00;;;;;;;;2;261079457;261079457;-79
2022/03/26 12:37:24;;;;;;;;;0.00;0.00;;;;;;;;2;288082798;288082798;-78
2022/03/26 12:45:39;;;;;;;;;0.00;0.00;;;;;;;;2;261076849;261076849;-77
2022/03/26 12:55:07;;;;;;;;;0.00;0.00;;;;;;;;2;288083625;288083625;-76
2022/03/26 13:03:26;;;;;;;;;0.00;0.00;;;;;;;;2;261080700;261080700;-75
2022/03/26 13:12:53;;;;;;;;;0.00;0.00;;;;;;;;2;288083155;288083155;-78
2022/03/26 13:21:10;;;;;;;;;0.00;0.00;;;;;;;;2;261077212;261077212;-78
2022/03/26 13:30:37;;;;;;;;;0.00;0.00;;;;;;;;2;288083425;288083425;-77
2022/03/26 13:38:53;;;;;;;;;0.00;0.00;;;;;;;;2;261080724;261080724;-75
2022/03/26 13:48:20;;;;;;;;;0.00;0.00;;;;;;;;2;288083257;288083257;-77
2022/03/26 13:56:37;;;;;;;;;0.00;0.00;;;;;;;;2;261076803;261076803;-76
2022/03/26 14:06:04;;;;;;;;;0.00;0.00;;;;;;;;2;288082360;288082360;-76
2022/03/26 14:14:20;;;;;;;;;0.00;0.00;;;;;;;;2;261077725;261077725;-79
2022/03/26 14:23:48;;;;;;;;;0.00;0.00;;;;;;;;2;288084182;288084182;-79
2022/03/26 14:32:03;;;;;;;;;0.00;0.00;;;;;;;;2;261079330;261079330;-79
2022/03/26 14:41:31;;;;;;;;;0.00;0.00;;;;;;;;2;288086591;288086591;-79
2022/03/26 14:49:46;;;;;;;;;0.00;0.00;;;;;;;;2;261076043;261076043;-78
2022/03/26 14:59:14;;;;;;;;;0.00;0.00;;;;;;;;2;288086770;288086770;-77
2022/03/26 15:07:29;;;;;;;;;0.00;0.00;;;;;;;;2;261075937;261075937;-77
2022/03/26 15:16:59;;;;;;;;;0.00;0.00;;;;;;;;2;288085664;288085664;-78
2022/03/26 15:25:14;;;;;;;;;0.00;0.00;;;;;;;;2;261076780;261076780;-78
2022/03/26 15:34:42;;;;;;;;;0.00;0.00;;;;;;;;2;288085859;288085859;-76
2022/03/26 15:42:57;;;;;;;;;0.00;0.00;;;;;;;;2;261078424;261078424;-81
2022/03/26 15:52:26;;;;;;;;;0.00;0.00;;;;;;;;2;288085692;288085692;-80
2022/03/26 16:00:41;;;;;;;;;0.00;0.00;;;;;;;;2;261078128;261078128;-79
2022/03/26 16:10:09;;;;;;;;;0.00;0.00;;;;;;;;2;288080026;288080026;-80
2022/03/26 16:18:24;;;;;;;;;0.00;0.00;;;;;;;;2;261076807;261076807;-80
2022/03/26 16:27:52;;;;;;;;;0.00;0.00;;;;;;;;2;288084689;288084689;-76
2022/03/26 16:36:07;;;;;;;;;0.00;0.00;;;;;;;;2;261077098;261077098;-76
2022/03/26 16:45:35;;;;;;;;;0.00;0.00;;;;;;;;2;288089024;288089024;-79
2022/03/26 16:53:50;;;;;;;;;0.00;0.00;;;;;;;;2;261079121;261079121;-78
2022/03/26 17:03:22;;;;;;;;;0.00;0.00;;;;;;;;2;288088034;288088034;-77
2022/03/26 17:11:37;;;;;;;;;0.00;0.00;;;;;;;;2;261078173;261078173;-77
2022/03/26 17:21:05;;;;;;;;;0.00;0.00;;;;;;;;2;288085071;288085071;-81
2022/03/26 17:29:20;;;;;;;;;0.00;0.00;;;;;;;;2;261077537;261077537;-79
2022/03/26 17:38:48;;;;;;;;;0.00;0.00;;;;;;;;2;288089574;288089574;-77
2022/03/26 17:47:06;;;;;;;;;0.00;0.00;;;;;;;;2;261078034;261078034;-75
2022/03/26 17:56:33;;;;;;;;;0.00;0.00;;;;;;;;2;288086664;288086664;-77
2022/03/26 18:04:49;;;;;;;;;0.00;0.00;;;;;;;;2;261076448;261076448;-76
2022/03/26 18:14:17;;;;;;;;;0.00;0.00;;;;;;;;2;288085271;288085271;-77
2022/03/26 18:22:32;;;;;;;;;0.00;0.00;;;;;;;;2;261075143;261075143;-76
2022/03/26 18:32:00;;;;;;;;;0.00;0.00;;;;;;;;2;288081111;288081111;-77
2022/03/26 18:40:16;;;;;;;;;0.00;0.00;;;;;;;;2;261078139;261078139;-77
2022/03/26 18:49:43;;;;;;;;;0.00;0.00;;;;;;;;2;288079991;288079991;-76
2022/03/26 18:57:58;;;;;;;;;0.00;0.00;;;;;;;;2;261075696;261075696;-76
2022/03/26 19:07:26;;;;;;;;;0.00;0.00;;;;;;;;2;288085228;288085228;-76
2022/03/26 19:15:42;;;;;;;;;0.00;0.00;;;;;;;;2;261077767;261077767;-76
2022/03/26 19:25:10;;;;;;;;;0.00;0.00;;;;;;;;2;288082283;288082283;-76
2022/03/26 19:33:25;;;;;;;;;0.00;0.00;;;;;;;;2;261077529;261077529;-76
2022/03/26 19:42:54;;;;;;;;;0.00;0.00;;;;;;;;2;288085364;288085364;-75
2022/03/26 19:51:11;;;;;;;;;0.00;0.00;;;;;;;;2;261075247;261075247;-76
2022/03/26 20:00:39;;;;;;;;;0.00;0.00;;;;;;;;2;288082562;288082562;-76
2022/03/26 20:08:55;;;;;;;;;0.00;0.00;;;;;;;;2;261075905;261075905;-76
2022/03/26 20:18:40;;;;;;;;;0.00;0.00;;;;;;;;2;288084842;288084842;-76
2022/03/26 20:26:56;;;;;;;;;0.00;0.00;;;;;;;;2;261078373;261078373;-76
2022/03/26 20:36:27;;;;;;;;;0.00;0.00;;;;;;;;2;288086187;288086187;-77
2022/03/26 20:44:42;;;;;;;;;0.00;0.00;;;;;;;;2;261076791;261076791;-77
2022/03/26 20:54:10;;;;;;;;;0.00;0.00;;;;;;;;2;288085332;288085332;-77
2022/03/26 21:02:26;;;;;;;;;0.00;0.00;;;;;;;;2;261077604;261077604;-76
2022/03/26 21:11:53;;;;;;;;;0.00;0.00;;;;;;;;2;288083343;288083343;-76
2022/03/26 21:20:09;;;;;;;;;0.00;0.00;;;;;;;;2;261077898;261077898;-76
2022/03/26 21:29:37;;;;;;;;;0.00;0.00;;;;;;;;2;288084430;288084430;-78
2022/03/26 21:37:52;;;;;;;;;0.00;0.00;;;;;;;;2;261076807;261076807;-77
2022/03/26 21:47:20;;;;;;;;;0.00;0.00;;;;;;;;2;288084985;288084985;-78
2022/03/26 21:55:36;;;;;;;;;0.00;0.00;;;;;;;;2;261079898;261079898;-76
2022/03/26 22:05:04;;;;;;;;;0.00;0.00;;;;;;;;2;288086753;288086753;-76
2022/03/26 22:13:20;;;;;;;;;0.00;0.00;;;;;;;;2;261075458;261075458;-75
2022/03/26 22:22:48;;;;;;;;;0.00;0.00;;;;;;;;2;288086162;288086162;-75
2022/03/26 22:31:03;;;;;;;;;0.00;0.00;;;;;;;;2;261075692;261075692;-72
2022/03/26 22:40:31;;;;;;;;;0.00;0.00;;;;;;;;2;288090931;288090931;-72
2022/03/26 22:48:47;;;;;;;;;0.00;0.00;;;;;;;;2;261077522;261077522;-72
2022/03/26 22:58:14;;;;;;;;;0.00;0.00;;;;;;;;2;288085630;288085630;-72
2022/03/26 23:06:30;;;;;;;;;0.00;0.00;;;;;;;;2;261075490;261075490;-72
2022/03/26 23:15:58;;;;;;;;;0.00;0.00;;;;;;;;2;288085777;288085777;-72
2022/03/26 23:24:13;;;;;;;;;0.00;0.00;;;;;;;;2;261076832;261076832;-73
2022/03/26 23:33:41;;;;;;;;;0.00;0.00;;;;;;;;2;288083692;288083692;-74
2022/03/26 23:41:56;;;;;;;;;0.00;0.00;;;;;;;;2;261081316;261081316;-73
2022/03/26 23:51:23;;;;;;;;;0.00;0.00;;;;;;;;2;288086360;288086360;-73
2022/03/26 23:59:39;;;;;;;;;0.00;0.00;;;;;;;;2;261078243;261078243;-74
